Time;durP1;ratioP1;P1;durP2;ratioP2;P2;SDS_P1;SDS_P2;PMS_P1;PMS_P2;Temp;Humidity;BMP_temperature;BMP_pressure;BME280_temperature;BME280_humidity;BME280_pressure;Samples;Min_cycle;Max_cycle;Signal;HPM_P1;HPM_P2
2023/12/06 00:01:25;;;;;;;33.67;19.70;;;5.30;75.00;;;;;;5091485;28;20362;-66
2023/12/06 00:03:51;;;;;;;33.17;20.17;;;5.30;75.00;;;;;;5101203;28;20024;-66
2023/12/06 00:06:17;;;;;;;33.97;20.50;;;5.30;75.00;;;;;;5076537;28;20028;-66
2023/12/06 00:08:43;;;;;;;34.37;19.87;;;5.40;75.00;;;;;;5082373;28;20011;-66
2023/12/06 00:11:09;;;;;;;30.90;18.30;;;5.30;75.00;;;;;;5098142;28;20444;-66
2023/12/06 00:13:34;;;;;;;34.23;20.20;;;5.30;75.00;;;;;;5082571;28;20035;-66
2023/12/06 00:16:00;;;;;;;32.23;19.40;;;5.30;75.00;;;;;;5101979;28;20367;-66
2023/12/06 00:18:27;;;;;;;30.63;18.43;;;5.30;75.00;;;;;;5099756;28;20044;-67
2023/12/06 00:20:53;;;;;;;33.13;19.50;;;5.40;75.00;;;;;;5094634;28;20031;-66
2023/12/06 00:23:19;;;;;;;31.03;18.97;;;5.40;75.10;;;;;;5105340;28;20364;-66
2023/12/06 00:25:45;;;;;;;31.83;18.60;;;5.40;75.10;;;;;;5061590;28;20037;-66
2023/12/06 00:28:10;;;;;;;31.03;18.67;;;5.30;75.00;;;;;;5068225;28;20028;-66
2023/12/06 00:30:36;;;;;;;30.20;18.13;;;5.30;75.10;;;;;;5085597;28;20024;-66
2023/12/06 00:33:03;;;;;;;32.60;18.27;;;5.30;75.10;;;;;;5097822;28;20134;-66
2023/12/06 00:35:29;;;;;;;31.87;18.97;;;5.30;75.20;;;;;;5078539;28;20419;-66
2023/12/06 00:37:54;;;;;;;30.80;19.20;;;5.30;75.20;;;;;;5063169;28;20111;-66
2023/12/06 00:40:20;;;;;;;28.73;17.80;;;5.30;75.20;;;;;;5097140;28;20028;-66
2023/12/06 00:42:46;;;;;;;29.07;16.90;;;5.30;75.30;;;;;;5096881;28;20039;-66
2023/12/06 00:45:12;;;;;;;30.33;18.97;;;5.30;75.30;;;;;;5077783;28;20097;-66
2023/12/06 00:47:38;;;;;;;29.83;17.87;;;5.40;75.30;;;;;;5084515;28;20026;-66
2023/12/06 00:50:05;;;;;;;28.13;18.13;;;5.40;75.30;;;;;;5097330;28;20020;-66
2023/12/06 00:52:31;;;;;;;29.57;19.43;;;5.40;75.30;;;;;;5080624;28;20032;-66
2023/12/06 00:54:57;;;;;;;29.40;18.63;;;5.40;75.30;;;;;;5096904;28;20047;-66
2023/12/06 00:57:23;;;;;;;26.83;17.27;;;5.40;75.20;;;;;;5085835;28;20036;-66
2023/12/06 00:59:49;;;;;;;27.97;17.50;;;5.40;75.10;;;;;;5104735;28;20114;-66
2023/12/06 01:02:14;;;;;;;27.97;17.77;;;5.50;75.10;;;;;;5076020;28;20042;-66
2023/12/06 01:04:40;;;;;;;28.93;17.27;;;5.50;75.10;;;;;;5090401;28;20032;-66
2023/12/06 01:07:06;;;;;;;28.10;16.87;;;5.50;75.10;;;;;;5102066;28;20106;-66
2023/12/06 01:09:32;;;;;;;28.80;17.70;;;5.50;75.20;;;;;;5091578;28;20042;-66
2023/12/06 01:11:58;;;;;;;28.33;17.27;;;5.50;75.20;;;;;;5115940;28;20035;-66
2023/12/06 01:14:24;;;;;;;30.30;18.70;;;5.50;75.30;;;;;;5077552;28;20479;-66
2023/12/06 01:16:50;;;;;;;31.60;19.47;;;5.50;75.40;;;;;;5083963;28;20036;-66
2023/12/06 01:19:16;;;;;;;29.77;20.20;;;5.40;75.40;;;;;;5081597;28;20052;-66
2023/12/06 01:21:42;;;;;;;30.67;18.60;;;5.40;75.50;;;;;;5091117;28;20458;-66
2023/12/06 01:24:10;;;;;;;29.83;19.13;;;5.40;75.60;;;;;;5096037;28;20097;-66
2023/12/06 01:26:35;;;;;;;27.87;17.93;;;5.40;75.70;;;;;;5087835;28;20040;-66
2023/12/06 01:29:03;;;;;;;31.07;19.40;;;5.40;75.70;;;;;;5087239;28;20028;-66
2023/12/06 01:31:29;;;;;;;28.00;18.57;;;5.40;75.80;;;;;;5104183;28;20020;-66
2023/12/06 01:33:55;;;;;;;31.90;19.20;;;5.40;75.80;;;;;;5097342;28;20016;-66
2023/12/06 01:36:21;;;;;;;30.93;19.37;;;5.40;75.90;;;;;;5066032;28;20403;-66
2023/12/06 01:38:48;;;;;;;28.77;18.10;;;5.40;75.90;;;;;;5065489;28;20062;-66
2023/12/06 01:41:14;;;;;;;29.27;18.67;;;5.50;76.00;;;;;;5086820;28;20024;-66
2023/12/06 01:43:44;;;;;;;30.83;18.43;;;5.50;76.10;;;;;;5100022;28;20040;-66
2023/12/06 01:46:10;;;;;;;30.70;19.80;;;5.50;76.00;;;;;;5078864;28;20051;-66
2023/12/06 01:48:37;;;;;;;32.27;19.60;;;5.50;76.00;;;;;;5101044;28;20017;-67
2023/12/06 01:51:04;;;;;;;33.43;19.40;;;5.50;76.10;;;;;;5106262;28;20444;-66
2023/12/06 01:53:31;;;;;;;32.77;20.07;;;5.50;76.10;;;;;;5102374;28;20040;-66
2023/12/06 01:55:58;;;;;;;29.70;18.37;;;5.60;76.20;;;;;;5109303;28;20036;-66
2023/12/06 01:58:25;;;;;;;30.20;18.90;;;5.50;76.10;;;;;;5107010;28;20031;-66
2023/12/06 02:00:51;;;;;;;29.77;18.77;;;5.60;76.20;;;;;;5110180;28;20032;-66
2023/12/06 02:03:17;;;;;;;32.10;18.50;;;5.60;76.20;;;;;;5096794;28;20459;-66
2023/12/06 02:05:44;;;;;;;34.10;20.07;;;5.60;76.30;;;;;;5086147;28;20031;-66
2023/12/06 02:08:11;;;;;;;30.30;18.67;;;5.60;76.40;;;;;;5101121;28;20035;-66
2023/12/06 02:10:36;;;;;;;32.03;19.57;;;5.60;76.40;;;;;;5085939;28;20097;-66
2023/12/06 02:13:02;;;;;;;30.50;19.60;;;5.60;76.50;;;;;;5110770;28;20028;-66
2023/12/06 02:15:28;;;;;;;31.70;19.73;;;5.60;76.60;;;;;;5083911;28;20081;-66
2023/12/06 02:17:54;;;;;;;30.80;19.00;;;5.60;76.60;;;;;;5080829;28;20423;-66
2023/12/06 02:20:21;;;;;;;33.47;20.80;;;5.60;76.60;;;;;;5091858;28;20028;-66
2023/12/06 02:22:49;;;;;;;31.97;19.63;;;5.60;76.60;;;;;;5099626;28;20032;-66
2023/12/06 02:25:15;;;;;;;36.47;19.67;;;5.60;76.60;;;;;;5071108;28;20024;-66
2023/12/06 02:27:45;;;;;;;30.43;19.07;;;5.70;76.70;;;;;;5081260;28;20059;-66
2023/12/06 02:30:12;;;;;;;29.60;17.67;;;5.60;76.70;;;;;;5098660;28;20115;-66
2023/12/06 02:32:38;;;;;;;30.67;19.43;;;5.70;76.80;;;;;;5100278;28;20032;-66
2023/12/06 02:35:26;;;;;;;32.17;18.40;;;5.70;76.70;;;;;;5089810;28;20461;-66
2023/12/06 02:37:55;;;;;;;31.77;19.37;;;5.70;76.80;;;;;;5092967;28;20515;-66
2023/12/06 02:40:22;;;;;;;28.40;17.40;;;5.70;76.80;;;;;;5057825;28;20086;-66
2023/12/06 02:42:48;;;;;;;30.63;18.20;;;5.70;76.80;;;;;;5084968;28;20036;-66
2023/12/06 02:45:14;;;;;;;27.50;17.33;;;5.70;76.90;;;;;;5074069;28;20059;-66
2023/12/06 02:47:40;;;;;;;31.63;18.13;;;5.70;76.90;;;;;;5093805;28;20042;-66
2023/12/06 02:50:06;;;;;;;30.07;17.87;;;5.70;77.70;;;;;;5094477;28;20016;-66
2023/12/06 02:52:32;;;;;;;33.23;18.80;;;5.70;77.10;;;;;;5090127;28;20066;-66
2023/12/06 02:54:58;;;;;;;29.03;16.23;;;5.70;77.10;;;;;;5090749;28;20028;-66
2023/12/06 02:57:25;;;;;;;31.27;18.17;;;5.70;77.10;;;;;;5069704;28;20399;-66
2023/12/06 02:59:51;;;;;;;32.27;18.63;;;5.70;77.10;;;;;;5097286;28;20024;-65
2023/12/06 03:02:17;;;;;;;30.63;18.17;;;5.70;77.20;;;;;;5093517;28;20436;-66
2023/12/06 03:04:42;;;;;;;28.23;16.77;;;5.70;77.30;;;;;;5076561;28;20019;-66
2023/12/06 03:07:08;;;;;;;27.40;16.70;;;5.80;77.30;;;;;;5061782;28;20050;-66
2023/12/06 03:09:34;;;;;;;28.23;17.43;;;5.70;77.30;;;;;;5109190;28;20031;-66
2023/12/06 03:11:59;;;;;;;29.70;17.63;;;5.80;77.40;;;;;;5076848;28;20120;-66
2023/12/06 03:14:25;;;;;;;32.87;20.37;;;5.80;77.40;;;;;;5085554;28;20115;-66
2023/12/06 03:16:51;;;;;;;29.50;18.10;;;5.80;77.50;;;;;;5065351;28;20119;-66
2023/12/06 03:19:17;;;;;;;29.93;18.63;;;5.80;77.50;;;;;;5078983;28;20032;-66
2023/12/06 03:21:42;;;;;;;31.20;19.50;;;5.80;77.50;;;;;;5080905;28;20028;-66
2023/12/06 03:24:08;;;;;;;31.73;18.47;;;5.80;77.50;;;;;;5093911;28;20074;-66
2023/12/06 03:26:34;;;;;;;29.67;18.73;;;5.80;77.60;;;;;;5076983;28;20093;-66
2023/12/06 03:28:59;;;;;;;31.53;18.00;;;5.80;77.60;;;;;;5091825;28;20486;-66
2023/12/06 03:31:25;;;;;;;29.43;17.00;;;5.80;77.60;;;;;;5097866;28;20028;-66
2023/12/06 03:33:51;;;;;;;31.13;18.17;;;5.80;77.60;;;;;;5097135;28;20114;-66
2023/12/06 03:36:16;;;;;;;28.27;16.23;;;5.80;77.60;;;;;;5090921;28;20207;-66
2023/12/06 03:38:42;;;;;;;31.33;18.27;;;5.80;77.60;;;;;;5092561;28;20072;-66
2023/12/06 03:41:09;;;;;;;32.37;19.40;;;5.80;77.60;;;;;;5076814;28;20024;-66
2023/12/06 03:43:35;;;;;;;29.13;18.73;;;5.90;77.80;;;;;;5078340;28;20480;-66
2023/12/06 03:46:00;;;;;;;35.10;18.53;;;5.90;78.50;;;;;;5072332;28;20440;-66
2023/12/06 03:48:26;;;;;;;30.27;19.07;;;5.90;77.80;;;;;;5079851;28;20031;-66
2023/12/06 03:50:52;;;;;;;31.67;19.03;;;5.90;77.90;;;;;;5097709;28;20453;-66
2023/12/06 03:53:18;;;;;;;28.53;18.17;;;5.90;77.90;;;;;;5071641;28;20063;-66
2023/12/06 03:55:43;;;;;;;34.00;18.30;;;5.90;77.90;;;;;;5094348;28;20032;-65
2023/12/06 03:58:09;;;;;;;27.77;17.37;;;5.90;77.90;;;;;;5063204;28;20028;-66
2023/12/06 04:00:35;;;;;;;30.60;17.93;;;5.90;77.90;;;;;;5108970;28;20023;-66
2023/12/06 04:03:01;;;;;;;26.83;16.80;;;6.00;78.00;;;;;;5076508;28;20024;-66
2023/12/06 04:05:27;;;;;;;30.67;19.43;;;5.90;77.90;;;;;;5092695;28;20371;-66
2023/12/06 04:07:52;;;;;;;30.57;18.23;;;5.90;77.90;;;;;;5080071;28;20017;-66
2023/12/06 04:10:18;;;;;;;30.07;19.10;;;6.00;78.10;;;;;;5084606;28;20472;-66
2023/12/06 04:12:44;;;;;;;33.03;18.90;;;5.90;78.00;;;;;;5067969;28;20122;-66
2023/12/06 04:15:11;;;;;;;27.70;17.33;;;6.00;78.20;;;;;;5091615;28;20104;-66
2023/12/06 04:17:36;;;;;;;32.97;17.87;;;6.00;78.20;;;;;;5072716;28;20063;-66
2023/12/06 04:20:06;;;;;;;29.40;17.90;;;6.00;78.20;;;;;;5082995;28;20065;-66
2023/12/06 04:22:32;;;;;;;29.17;16.97;;;6.00;78.30;;;;;;5078188;28;20073;-65
2023/12/06 04:24:58;;;;;;;26.40;17.27;;;6.00;78.30;;;;;;5104499;28;20114;-66
2023/12/06 04:27:23;;;;;;;27.93;16.50;;;6.00;78.30;;;;;;5075177;28;20032;-66
2023/12/06 04:29:49;;;;;;;27.97;16.73;;;6.00;78.30;;;;;;5099135;28;20042;-66
2023/12/06 04:32:15;;;;;;;28.03;16.87;;;6.00;78.30;;;;;;5085666;28;20100;-66
2023/12/06 04:34:51;;;;;;;26.13;16.33;;;6.00;78.40;;;;;;5091924;28;20341;-66
2023/12/06 04:37:17;;;;;;;30.90;17.47;;;6.00;78.50;;;;;;5090812;28;20103;-66
2023/12/06 04:39:43;;;;;;;29.93;17.30;;;6.00;78.40;;;;;;5079101;28;20116;-66
2023/12/06 04:42:09;;;;;;;26.10;15.97;;;6.00;78.40;;;;;;5082266;28;20036;-66
2023/12/06 04:44:35;;;;;;;24.47;16.97;;;6.00;78.40;;;;;;5079361;28;20028;-66
2023/12/06 04:47:01;;;;;;;25.53;15.97;;;6.10;78.60;;;;;;5083988;28;20089;-66
2023/12/06 04:49:27;;;;;;;25.90;15.40;;;6.10;78.60;;;;;;5077653;28;20016;-66
2023/12/06 04:51:53;;;;;;;24.37;14.93;;;6.10;78.70;;;;;;5075628;28;20040;-66
2023/12/06 04:54:19;;;;;;;23.77;15.23;;;6.10;78.60;;;;;;5067753;28;20028;-66
2023/12/06 04:56:44;;;;;;;24.93;15.87;;;6.10;78.60;;;;;;5093890;28;20043;-66
2023/12/06 04:59:10;;;;;;;23.73;14.77;;;6.10;78.60;;;;;;5096313;28;20024;-65
2023/12/06 05:01:36;;;;;;;24.07;14.80;;;6.10;78.60;;;;;;5060793;28;20121;-65
2023/12/06 05:04:03;;;;;;;23.27;15.03;;;6.10;78.60;;;;;;5072469;28;20111;-65
2023/12/06 05:06:28;;;;;;;25.50;15.13;;;6.10;78.60;;;;;;5091603;28;20099;-66
2023/12/06 05:08:54;;;;;;;26.27;15.93;;;6.20;78.70;;;;;;5093496;28;20513;-66
2023/12/06 05:11:20;;;;;;;21.47;14.07;;;6.10;78.70;;;;;;5076766;28;20024;-66
2023/12/06 05:13:46;;;;;;;23.20;14.87;;;6.10;78.70;;;;;;5075404;28;20038;-66
2023/12/06 05:16:11;;;;;;;25.80;15.63;;;6.10;78.80;;;;;;5090759;28;20055;-66
2023/12/06 05:18:37;;;;;;;21.50;13.97;;;6.10;78.90;;;;;;5059846;28;20134;-66
2023/12/06 05:21:03;;;;;;;22.30;14.37;;;6.10;79.00;;;;;;5099525;28;20422;-66
2023/12/06 05:23:29;;;;;;;21.13;13.73;;;6.10;79.00;;;;;;5076518;28;20059;-65
2023/12/06 05:25:55;;;;;;;21.37;13.67;;;6.10;79.10;;;;;;5098863;28;20051;-66
2023/12/06 05:28:20;;;;;;;22.03;14.10;;;6.10;79.10;;;;;;5073608;28;20048;-66
2023/12/06 05:30:46;;;;;;;22.07;13.87;;;6.10;79.10;;;;;;5077304;28;20008;-65
2023/12/06 05:33:12;;;;;;;22.17;13.17;;;6.10;79.10;;;;;;5075718;28;20016;-66
2023/12/06 05:35:37;;;;;;;21.27;12.80;;;6.20;79.20;;;;;;5073309;28;20471;-66
2023/12/06 05:38:03;;;;;;;20.30;12.90;;;6.20;79.20;;;;;;5059024;28;20109;-66
2023/12/06 05:40:30;;;;;;;19.97;12.97;;;6.20;79.20;;;;;;5093937;28;20493;-66
2023/12/06 05:42:56;;;;;;;21.20;13.70;;;6.20;79.20;;;;;;5073503;28;20020;-65
2023/12/06 05:45:22;;;;;;;21.40;14.27;;;6.20;79.20;;;;;;5091862;28;20419;-66
2023/12/06 05:47:47;;;;;;;19.57;12.67;;;6.20;79.10;;;;;;5091764;28;20395;-66
2023/12/06 05:50:14;;;;;;;21.10;12.97;;;6.20;79.20;;;;;;5075563;28;20505;-66
2023/12/06 05:52:39;;;;;;;19.20;12.33;;;6.20;79.20;;;;;;5095634;28;20028;-66
2023/12/06 05:55:05;;;;;;;17.43;11.37;;;6.20;79.20;;;;;;5090568;28;20035;-66
2023/12/06 05:57:32;;;;;;;16.70;10.83;;;6.20;79.20;;;;;;5095993;28;20023;-66
2023/12/06 06:00:00;;;;;;;17.87;11.40;;;6.20;79.20;;;;;;5093900;28;20036;-66
2023/12/06 06:02:26;;;;;;;17.87;11.57;;;6.30;79.30;;;;;;5082350;28;20035;-66
2023/12/06 06:04:52;;;;;;;18.37;11.83;;;6.30;79.30;;;;;;5091749;28;20032;-66
2023/12/06 06:07:17;;;;;;;18.40;11.53;;;6.30;79.30;;;;;;5088933;28;20024;-66
2023/12/06 06:09:43;;;;;;;18.83;11.67;;;6.30;79.40;;;;;;5089531;28;20020;-66
2023/12/06 06:12:09;;;;;;;17.97;11.47;;;6.30;79.40;;;;;;5095746;28;20435;-66
2023/12/06 06:14:35;;;;;;;19.27;12.17;;;6.30;79.40;;;;;;5094870;28;20340;-66
2023/12/06 06:17:00;;;;;;;18.77;11.63;;;6.30;79.40;;;;;;5076915;28;20474;-66
2023/12/06 06:19:26;;;;;;;19.60;12.03;;;6.30;79.50;;;;;;5073254;28;20044;-66
2023/12/06 06:21:52;;;;;;;17.23;11.57;;;6.30;79.50;;;;;;5059186;28;20112;-66
2023/12/06 06:24:18;;;;;;;18.67;12.40;;;6.30;79.50;;;;;;5078942;28;20103;-66
2023/12/06 06:26:44;;;;;;;19.03;11.97;;;6.30;79.60;;;;;;5062189;28;20110;-66
2023/12/06 06:29:09;;;;;;;19.00;12.10;;;6.30;79.70;;;;;;5077191;28;20400;-66
2023/12/06 06:31:35;;;;;;;20.77;13.67;;;6.30;79.60;;;;;;5063474;28;20032;-66
2023/12/06 06:34:02;;;;;;;18.23;12.53;;;6.30;79.70;;;;;;5066033;28;20039;-66
2023/12/06 06:36:28;;;;;;;18.83;12.47;;;6.30;79.70;;;;;;5066844;28;20016;-66
2023/12/06 06:38:57;;;;;;;17.77;11.67;;;6.30;79.70;;;;;;5069632;28;20111;-66
2023/12/06 06:41:25;;;;;;;16.13;11.47;;;6.30;79.70;;;;;;5068093;28;20038;-66
2023/12/06 06:43:51;;;;;;;19.03;12.00;;;6.30;79.70;;;;;;5061926;28;20032;-65
2023/12/06 06:46:17;;;;;;;20.53;12.47;;;6.30;79.70;;;;;;5043527;28;20029;-66
2023/12/06 06:48:43;;;;;;;18.60;12.27;;;6.30;79.70;;;;;;5076741;28;20035;-66
2023/12/06 06:51:09;;;;;;;19.47;12.93;;;6.30;79.70;;;;;;5061080;28;20028;-66
2023/12/06 06:53:35;;;;;;;19.67;12.50;;;6.40;79.70;;;;;;5071166;28;20032;-66
2023/12/06 06:56:02;;;;;;;20.03;13.27;;;6.40;79.70;;;;;;5080675;28;20112;-66
2023/12/06 06:58:28;;;;;;;19.00;11.97;;;6.40;79.80;;;;;;5056047;28;20028;-66
2023/12/06 07:00:54;;;;;;;20.90;13.20;;;6.40;79.80;;;;;;5064324;28;20310;-66
2023/12/06 07:03:21;;;;;;;21.30;13.13;;;6.40;80.50;;;;;;5065368;28;20020;-66
2023/12/06 07:05:46;;;;;;;18.27;12.20;;;6.40;79.90;;;;;;5058605;28;20119;-66
2023/12/06 07:08:12;;;;;;;19.40;12.80;;;6.40;79.90;;;;;;5068102;28;20063;-66
2023/12/06 07:10:38;;;;;;;19.27;12.67;;;6.40;79.90;;;;;;5089951;28;20017;-66
2023/12/06 07:13:05;;;;;;;18.27;12.43;;;6.40;80.00;;;;;;5045610;28;20053;-65
2023/12/06 07:15:31;;;;;;;21.20;13.50;;;6.40;80.00;;;;;;5081037;28;20043;-65
2023/12/06 07:17:57;;;;;;;18.87;12.17;;;6.40;80.00;;;;;;5071351;28;20028;-66
2023/12/06 07:20:24;;;;;;;19.53;13.37;;;6.40;80.00;;;;;;5102672;28;20040;-66
2023/12/06 07:22:50;;;;;;;22.37;12.90;;;6.50;80.00;;;;;;5071982;28;20028;-66
2023/12/06 07:25:16;;;;;;;19.90;13.47;;;6.50;80.00;;;;;;5084633;28;20028;-66
2023/12/06 07:27:45;;;;;;;17.67;11.83;;;6.50;80.10;;;;;;5083809;28;20120;-65
2023/12/06 07:30:14;;;;;;;20.53;12.60;;;6.50;80.10;;;;;;5076634;28;20051;-64
2023/12/06 07:32:40;;;;;;;21.93;13.40;;;6.50;80.10;;;;;;5092008;28;20040;-64
2023/12/06 07:35:07;;;;;;;19.87;12.33;;;6.50;80.00;;;;;;5070467;28;20040;-64
2023/12/06 07:37:33;;;;;;;19.33;12.50;;;6.50;80.10;;;;;;5072594;28;20033;-64
2023/12/06 07:39:58;;;;;;;18.23;12.17;;;6.50;80.10;;;;;;5098999;28;20122;-65
2023/12/06 07:42:24;;;;;;;19.53;12.23;;;6.50;80.20;;;;;;5113536;28;20420;-65
2023/12/06 07:44:50;;;;;;;16.83;11.73;;;6.50;80.10;;;;;;5100845;28;20053;-64
2023/12/06 07:47:16;;;;;;;19.50;12.40;;;6.50;80.20;;;;;;5102152;28;20054;-65
2023/12/06 07:49:42;;;;;;;19.53;13.07;;;6.50;80.20;;;;;;5090793;28;20065;-65
2023/12/06 07:52:07;;;;;;;17.57;11.63;;;6.50;80.20;;;;;;5104037;28;20312;-65
2023/12/06 07:54:33;;;;;;;17.57;11.97;;;6.60;80.20;;;;;;5114116;28;20432;-64
2023/12/06 07:56:59;;;;;;;20.70;12.53;;;6.60;80.20;;;;;;5096825;28;20073;-65
2023/12/06 07:59:24;;;;;;;19.47;12.53;;;6.60;80.20;;;;;;5083662;28;20119;-65
2023/12/06 08:01:50;;;;;;;18.80;11.70;;;6.60;80.20;;;;;;5109342;28;20097;-65
2023/12/06 08:04:16;;;;;;;18.30;12.50;;;6.60;80.20;;;;;;5096185;28;20084;-65
2023/12/06 08:06:42;;;;;;;17.87;11.93;;;6.60;80.20;;;;;;5103355;28;20082;-65
2023/12/06 08:09:14;;;;;;;18.33;12.83;;;6.60;80.20;;;;;;5112003;28;20111;-65
2023/12/06 08:11:41;;;;;;;20.57;12.20;;;6.60;80.20;;;;;;5114286;28;20165;-65
2023/12/06 08:14:07;;;;;;;17.40;11.33;;;6.60;80.20;;;;;;5111686;28;20034;-65
2023/12/06 08:16:33;;;;;;;17.77;11.13;;;6.70;80.20;;;;;;5090231;28;20041;-65
2023/12/06 08:18:58;;;;;;;17.77;12.27;;;6.70;80.20;;;;;;5111038;28;20036;-65
2023/12/06 08:21:24;;;;;;;18.40;11.47;;;6.70;80.20;;;;;;5091533;28;20055;-65
2023/12/06 08:23:50;;;;;;;19.17;11.80;;;6.70;80.20;;;;;;5093960;28;20024;-65
2023/12/06 08:26:16;;;;;;;19.90;11.73;;;6.80;80.10;;;;;;5090202;28;20023;-66
2023/12/06 08:28:42;;;;;;;22.13;11.67;;;6.80;80.10;;;;;;5095928;28;20462;-65
2023/12/06 08:31:08;;;;;;;16.47;11.03;;;6.90;80.00;;;;;;5098847;28;20030;-66
2023/12/06 08:33:35;;;;;;;19.87;11.60;;;6.90;79.90;;;;;;5091222;28;20372;-65
2023/12/06 08:36:01;;;;;;;15.67;9.97;;;6.90;79.90;;;;;;5092783;28;20111;-69
2023/12/06 08:38:27;;;;;;;19.50;10.70;;;6.90;79.80;;;;;;5085350;28;20520;-68
2023/12/06 08:40:52;;;;;;;17.97;11.17;;;7.00;79.80;;;;;;5101053;28;20086;-68
2023/12/06 08:43:18;;;;;;;19.67;11.60;;;6.90;79.80;;;;;;5073637;28;20094;-68
2023/12/06 08:45:44;;;;;;;16.30;10.37;;;6.90;79.80;;;;;;5094748;28;20322;-68
2023/12/06 08:48:09;;;;;;;17.63;10.60;;;6.90;79.80;;;;;;5073355;28;20130;-68
2023/12/06 08:50:35;;;;;;;16.70;10.43;;;7.00;79.80;;;;;;5088061;28;20107;-67
2023/12/06 08:53:02;;;;;;;17.60;9.97;;;7.00;79.80;;;;;;5080918;28;20353;-67
2023/12/06 08:55:28;;;;;;;16.30;11.00;;;7.00;79.80;;;;;;5075550;28;20035;-68
2023/12/06 08:57:54;;;;;;;17.07;10.50;;;7.00;79.80;;;;;;5075367;28;20099;-68
2023/12/06 09:00:20;;;;;;;15.97;9.73;;;7.00;79.80;;;;;;5061912;28;20116;-68
2023/12/06 09:02:46;;;;;;;17.93;10.30;;;7.00;79.70;;;;;;5049522;28;20047;-67
2023/12/06 09:05:11;;;;;;;15.80;10.23;;;7.00;79.60;;;;;;5098441;28;20013;-67
2023/12/06 09:07:41;;;;;;;15.93;9.63;;;7.10;79.60;;;;;;5082246;28;20020;-66
2023/12/06 09:10:10;;;;;;;15.63;9.40;;;7.10;79.60;;;;;;5048048;28;20021;-66
2023/12/06 09:12:36;;;;;;;15.57;9.27;;;7.10;79.60;;;;;;5096813;28;20028;-66
2023/12/06 09:15:03;;;;;;;15.70;9.17;;;7.10;79.50;;;;;;5088963;28;20381;-66
2023/12/06 09:17:29;;;;;;;15.87;9.83;;;7.10;79.50;;;;;;5095968;28;20210;-66
2023/12/06 09:19:54;;;;;;;13.80;8.43;;;7.10;79.40;;;;;;5070890;28;20132;-66
2023/12/06 09:22:21;;;;;;;15.10;9.27;;;7.10;79.40;;;;;;5096325;28;20093;-66
2023/12/06 09:24:48;;;;;;;15.00;8.83;;;7.10;79.40;;;;;;5101681;28;20066;-69
2023/12/06 09:27:15;;;;;;;14.97;9.33;;;7.10;79.40;;;;;;5075454;28;20034;-68
2023/12/06 09:29:41;;;;;;;14.57;8.43;;;7.10;79.30;;;;;;5095938;28;20111;-67
2023/12/06 09:32:07;;;;;;;15.60;8.83;;;7.10;79.30;;;;;;5078668;28;20119;-67
2023/12/06 09:34:33;;;;;;;13.60;8.83;;;7.10;79.30;;;;;;5088977;28;20028;-68
2023/12/06 09:36:59;;;;;;;15.70;9.30;;;7.10;79.30;;;;;;5081010;28;20031;-66
2023/12/06 09:39:24;;;;;;;13.87;8.30;;;7.20;79.30;;;;;;5092252;28;20097;-65
2023/12/06 09:41:50;;;;;;;14.03;9.03;;;7.20;79.30;;;;;;5093713;28;20028;-65
2023/12/06 09:44:16;;;;;;;13.20;8.70;;;7.20;79.20;;;;;;5100792;28;20059;-67
2023/12/06 09:46:48;;;;;;;15.93;9.10;;;7.20;79.20;;;;;;5075673;28;20020;-68
2023/12/06 09:49:15;;;;;;;14.10;8.10;;;7.20;79.20;;;;;;5082898;28;20036;-68
2023/12/06 09:51:41;;;;;;;16.23;9.23;;;7.20;79.20;;;;;;5080108;28;20033;-70
2023/12/06 09:54:07;;;;;;;16.17;9.97;;;7.30;79.20;;;;;;5064913;28;20032;-66
2023/12/06 09:56:35;;;;;;;14.07;9.40;;;7.30;79.10;;;;;;5068986;28;20142;-67
2023/12/06 09:59:02;;;;;;;17.27;9.37;;;7.40;79.00;;;;;;5057027;28;20029;-71
2023/12/06 10:01:27;;;;;;;14.47;9.33;;;7.40;78.90;;;;;;5070699;28;20475;-67
2023/12/06 10:03:53;;;;;;;14.63;9.40;;;7.50;78.80;;;;;;5078576;28;20111;-66
2023/12/06 10:06:19;;;;;;;16.43;9.23;;;7.60;78.70;;;;;;5058977;28;20107;-67
2023/12/06 10:08:51;;;;;;;15.10;9.10;;;7.70;78.50;;;;;;5069609;28;20415;-67
2023/12/06 10:11:21;;;;;;;14.83;9.17;;;7.80;78.20;;;;;;5062016;28;20035;-68
2023/12/06 10:13:47;;;;;;;15.93;9.53;;;7.90;78.10;;;;;;5077405;28;20043;-67
2023/12/06 10:16:19;;;;;;;15.40;8.77;;;8.00;78.10;;;;;;5062361;28;20036;-68
2023/12/06 10:18:47;;;;;;;16.53;9.80;;;8.10;78.00;;;;;;5080294;28;20123;-68
2023/12/06 10:21:13;;;;;;;15.00;9.30;;;8.30;77.80;;;;;;5079868;28;20036;-68
2023/12/06 10:23:38;;;;;;;15.60;10.33;;;8.30;77.40;;;;;;5086935;28;20033;-67
2023/12/06 10:26:14;;;;;;;15.63;9.53;;;8.30;77.30;;;;;;5059141;28;20017;-69
2023/12/06 10:28:40;;;;;;;14.90;9.23;;;8.30;78.10;;;;;;5066926;28;20043;-67
2023/12/06 10:31:07;;;;;;;14.93;9.95;;;8.40;77.40;;;;;;5091990;28;20035;-67
2023/12/06 10:33:33;;;;;;;14.93;9.05;;;8.60;77.10;;;;;;5060581;28;20123;-66
2023/12/06 10:36:04;;;;;;;16.57;9.60;;;8.80;76.70;;;;;;5071081;28;20154;-68
2023/12/06 10:38:30;;;;;;;15.45;9.38;;;8.90;76.30;;;;;;5069513;28;20445;-67
2023/12/06 10:40:58;;;;;;;16.45;9.80;;;9.10;76.10;;;;;;5093465;28;20024;-68
2023/12/06 10:43:26;;;;;;;15.90;9.05;;;9.20;75.80;;;;;;5093653;28;20040;-68
2023/12/06 10:45:53;;;;;;;15.95;9.73;;;9.30;75.60;;;;;;5057305;28;20056;-69
2023/12/06 10:48:20;;;;;;;15.73;9.88;;;9.30;75.40;;;;;;5093925;28;20028;-68
2023/12/06 10:50:46;;;;;;;15.82;9.25;;;9.30;75.30;;;;;;5093530;28;20162;-69
2023/12/06 10:53:17;;;;;;;16.17;9.63;;;9.40;75.20;;;;;;5075973;28;20107;-69
2023/12/06 10:55:43;;;;;;;16.05;9.23;;;9.40;75.00;;;;;;5057497;28;20461;-69
2023/12/06 10:58:09;;;;;;;14.07;8.18;;;9.50;74.90;;;;;;5097684;28;20042;-68
2023/12/06 11:00:35;;;;;;;13.75;8.35;;;9.50;74.60;;;;;;5098875;28;20019;-69
2023/12/06 11:03:02;;;;;;;15.60;9.10;;;9.50;74.40;;;;;;5099882;28;20594;-67
2023/12/06 11:05:38;;;;;;;14.68;9.50;;;9.60;74.30;;;;;;5074891;28;20019;-67
2023/12/06 11:08:54;;;;;;;14.05;8.80;;;9.60;74.00;;;;;;5113044;28;20027;-68
2023/12/06 11:11:48;;;;;;;16.00;8.82;;;9.60;74.00;;;;;;5001005;28;20033;-68
2023/12/06 11:14:13;;;;;;;14.23;8.50;;;9.50;74.00;;;;;;5106521;28;20076;-68
2023/12/06 11:16:56;;;;;;;15.00;8.75;;;9.40;74.10;;;;;;5115111;28;20031;-68
2023/12/06 11:19:23;;;;;;;13.68;8.40;;;9.40;74.00;;;;;;5091154;28;20047;-68
2023/12/06 11:21:49;;;;;;;13.30;8.60;;;9.40;74.10;;;;;;5096508;28;20047;-68
2023/12/06 11:24:16;;;;;;;13.57;8.35;;;9.40;74.20;;;;;;5084879;28;20031;-68
2023/12/06 11:26:41;;;;;;;13.75;8.43;;;9.40;74.10;;;;;;5098832;28;20027;-68
2023/12/06 11:29:08;;;;;;;13.95;8.05;;;9.30;74.10;;;;;;5108529;28;20024;-69
2023/12/06 11:31:36;;;;;;;14.70;8.23;;;9.30;74.00;;;;;;5094155;28;20073;-70
2023/12/06 11:34:09;;;;;;;15.52;7.35;;;9.30;73.90;;;;;;5084677;28;20036;-69
2023/12/06 11:36:35;;;;;;;15.35;8.38;;;9.30;73.80;;;;;;5104808;28;20031;-69
2023/12/06 11:39:14;;;;;;;14.70;7.60;;;9.20;73.70;;;;;;5087504;28;20034;-69
2023/12/06 11:41:52;;;;;;;12.45;7.47;;;9.20;73.70;;;;;;5096817;28;20059;-69
2023/12/06 11:44:18;;;;;;;14.23;8.30;;;9.20;73.80;;;;;;5093598;28;20436;-69
2023/12/06 11:46:52;;;;;;;15.93;7.97;;;9.10;73.80;;;;;;5070883;28;20044;-69
2023/12/06 11:49:25;;;;;;;12.85;7.35;;;9.10;73.80;;;;;;5099305;28;20080;-66
2023/12/06 11:52:10;;;;;;;14.10;7.65;;;9.00;73.80;;;;;;5114518;28;20432;-69
2023/12/06 11:54:44;;;;;;;13.23;8.35;;;8.90;73.70;;;;;;5112841;28;20478;-69
2023/12/06 11:57:11;;;;;;;18.25;8.02;;;8.90;73.70;;;;;;5097171;28;20032;-69
2023/12/06 11:59:39;;;;;;;15.50;8.30;;;8.80;73.80;;;;;;5096836;28;20032;-68
2023/12/06 12:02:06;;;;;;;14.18;8.15;;;8.80;73.80;;;;;;5114921;28;20520;-69
2023/12/06 12:04:36;;;;;;;12.30;7.18;;;8.80;73.90;;;;;;5096775;28;20307;-69
2023/12/06 12:07:02;;;;;;;13.25;7.78;;;8.80;73.80;;;;;;5110172;28;20424;-69
2023/12/06 12:09:31;;;;;;;13.48;8.07;;;8.80;73.70;;;;;;5114596;28;20030;-69
2023/12/06 12:11:57;;;;;;;13.65;8.35;;;8.80;73.60;;;;;;5115041;28;20080;-69
2023/12/06 12:14:23;;;;;;;12.77;7.72;;;8.80;73.40;;;;;;5096531;28;20020;-69
2023/12/06 12:16:49;;;;;;;13.63;7.53;;;8.80;73.40;;;;;;5101806;28;20383;-69
2023/12/06 12:19:15;;;;;;;13.17;8.53;;;8.80;73.40;;;;;;5076137;28;20048;-69
2023/12/06 12:21:41;;;;;;;13.65;7.80;;;8.90;74.10;;;;;;5114428;28;20081;-66
2023/12/06 12:24:08;;;;;;;13.95;8.52;;;8.90;73.50;;;;;;5096261;28;20046;-68
2023/12/06 12:26:34;;;;;;;15.02;8.43;;;8.90;73.60;;;;;;5106521;28;20025;-67
2023/12/06 12:28:59;;;;;;;15.05;9.00;;;8.90;73.60;;;;;;5107571;28;20322;-67
2023/12/06 12:31:30;;;;;;;16.35;8.95;;;8.90;73.50;;;;;;5081974;28;20023;-67
2023/12/06 12:33:56;;;;;;;15.20;8.93;;;8.90;73.40;;;;;;5096879;28;20040;-67
2023/12/06 12:36:23;;;;;;;15.73;9.55;;;8.90;73.40;;;;;;5094027;28;20125;-67
2023/12/06 12:38:48;;;;;;;16.08;9.15;;;8.90;73.40;;;;;;5069408;28;20053;-67